sensor_id;sensor_type;location;lat;lon;timestamp;temperature;humidity
3788;DHT22;1909;53.046;8.276;2022-11-11T00:02:04;11.10;99.90
3788;DHT22;1909;53.046;8.276;2022-11-11T00:04:31;11.10;99.90
3788;DHT22;1909;53.046;8.276;2022-11-11T00:06:57;11.00;99.90
3788;DHT22;1909;53.046;8.276;2022-11-11T00:09:24;10.90;99.90
3788;DHT22;1909;53.046;8.276;2022-11-11T00:11:51;11.00;99.90
3788;DHT22;1909;53.046;8.276;2022-11-11T00:14:17;11.10;99.90
3788;DHT22;1909;53.046;8.276;2022-11-11T00:16:44;11.10;99.90
3788;DHT22;1909;53.046;8.276;2022-11-11T00:19:30;11.10;99.90
3788;DHT22;1909;53.046;8.276;2022-11-11T00:22:19;11.00;99.90
3788;DHT22;1909;53.046;8.276;2022-11-11T00:25:04;11.10;99.90
3788;DHT22;1909;53.046;8.276;2022-11-11T00:27:34;10.90;99.90
3788;DHT22;1909;53.046;8.276;2022-11-11T00:30:01;10.90;99.90
3788;DHT22;1909;53.046;8.276;2022-11-11T00:32:30;11.10;99.90
3788;DHT22;1909;53.046;8.276;2022-11-11T00:35:00;11.10;99.90
3788;DHT22;1909;53.046;8.276;2022-11-11T00:37:46;11.10;99.90
3788;DHT22;1909;53.046;8.276;2022-11-11T00:40:14;11.00;99.90
3788;DHT22;1909;53.046;8.276;2022-11-11T00:42:41;11.00;99.90
3788;DHT22;1909;53.046;8.276;2022-11-11T00:45:09;11.00;99.90
3788;DHT22;1909;53.046;8.276;2022-11-11T00:47:37;11.00;99.90
3788;DHT22;1909;53.046;8.276;2022-11-11T00:50:24;10.90;99.90
3788;DHT22;1909;53.046;8.276;2022-11-11T00:53:11;10.90;99.90
3788;DHT22;1909;53.046;8.276;2022-11-11T00:55:38;10.90;99.90
3788;DHT22;1909;53.046;8.276;2022-11-11T00:58:05;10.90;99.90
3788;DHT22;1909;53.046;8.276;2022-11-11T01:00:32;10.90;99.90
3788;DHT22;1909;53.046;8.276;2022-11-11T01:02:59;10.90;99.90
3788;DHT22;1909;53.046;8.276;2022-11-11T01:05:27;10.80;99.90
3788;DHT22;1909;53.046;8.276;2022-11-11T01:07:54;10.80;99.90
3788;DHT22;1909;53.046;8.276;2022-11-11T01:10:21;10.80;99.90
3788;DHT22;1909;53.046;8.276;2022-11-11T01:13:05;10.90;99.90
3788;DHT22;1909;53.046;8.276;2022-11-11T01:15:38;10.70;99.90
3788;DHT22;1909;53.046;8.276;2022-11-11T01:18:05;10.70;99.90
3788;DHT22;1909;53.046;8.276;2022-11-11T01:20:34;10.80;99.90
3788;DHT22;1909;53.046;8.276;2022-11-11T01:23:02;10.70;99.90
3788;DHT22;1909;53.046;8.276;2022-11-11T01:25:32;10.70;99.90
3788;DHT22;1909;53.046;8.276;2022-11-11T01:27:58;10.70;99.90
3788;DHT22;1909;53.046;8.276;2022-11-11T01:30:25;10.70;99.90
3788;DHT22;1909;53.046;8.276;2022-11-11T01:32:52;10.70;99.90
3788;DHT22;1909;53.046;8.276;2022-11-11T01:35:18;10.60;99.90
3788;DHT22;1909;53.046;8.276;2022-11-11T01:37:46;10.60;99.90
3788;DHT22;1909;53.046;8.276;2022-11-11T01:40:13;10.60;99.90
3788;DHT22;1909;53.046;8.276;2022-11-11T01:42:47;10.60;99.90
3788;DHT22;1909;53.046;8.276;2022-11-11T01:45:47;10.70;99.90
3788;DHT22;1909;53.046;8.276;2022-11-11T01:48:17;10.70;99.90
3788;DHT22;1909;53.046;8.276;2022-11-11T01:51:04;10.70;99.90
3788;DHT22;1909;53.046;8.276;2022-11-11T01:53:35;10.60;99.90
3788;DHT22;1909;53.046;8.276;2022-11-11T01:56:03;10.60;99.90
3788;DHT22;1909;53.046;8.276;2022-11-11T01:58:30;10.60;99.90
3788;DHT22;1909;53.046;8.276;2022-11-11T02:00:57;10.60;99.90
3788;DHT22;1909;53.046;8.276;2022-11-11T02:03:45;10.60;99.90
3788;DHT22;1909;53.046;8.276;2022-11-11T02:06:33;10.60;99.90
3788;DHT22;1909;53.046;8.276;2022-11-11T02:09:02;10.60;99.90
3788;DHT22;1909;53.046;8.276;2022-11-11T02:11:31;10.60;99.90
3788;DHT22;1909;53.046;8.276;2022-11-11T02:14:17;10.60;99.90
3788;DHT22;1909;53.046;8.276;2022-11-11T02:17:02;10.60;99.90
3788;DHT22;1909;53.046;8.276;2022-11-11T02:19:34;10.60;99.90
3788;DHT22;1909;53.046;8.276;2022-11-11T02:22:06;10.60;99.90
3788;DHT22;1909;53.046;8.276;2022-11-11T02:24:37;10.60;99.90
3788;DHT22;1909;53.046;8.276;2022-11-11T02:27:05;10.60;99.90
3788;DHT22;1909;53.046;8.276;2022-11-11T02:29:34;10.50;99.90
3788;DHT22;1909;53.046;8.276;2022-11-11T02:32:02;10.50;99.90
3788;DHT22;1909;53.046;8.276;2022-11-11T02:34:29;10.50;99.90
3788;DHT22;1909;53.046;8.276;2022-11-11T02:36:57;10.50;99.90
3788;DHT22;1909;53.046;8.276;2022-11-11T02:39:24;10.60;99.90
3788;DHT22;1909;53.046;8.276;2022-11-11T02:41:52;10.60;99.90
3788;DHT22;1909;53.046;8.276;2022-11-11T02:44:22;10.50;99.90
3788;DHT22;1909;53.046;8.276;2022-11-11T02:46:49;10.60;99.90
3788;DHT22;1909;53.046;8.276;2022-11-11T02:49:15;10.50;99.90
3788;DHT22;1909;53.046;8.276;2022-11-11T02:51:42;10.50;99.90
3788;DHT22;1909;53.046;8.276;2022-11-11T02:54:09;10.50;99.90
3788;DHT22;1909;53.046;8.276;2022-11-11T02:56:36;10.40;99.90
3788;DHT22;1909;53.046;8.276;2022-11-11T02:59:21;10.40;99.90
3788;DHT22;1909;53.046;8.276;2022-11-11T03:01:48;10.40;99.90
3788;DHT22;1909;53.046;8.276;2022-11-11T03:04:14;10.40;99.90
3788;DHT22;1909;53.046;8.276;2022-11-11T03:06:41;10.30;99.90
3788;DHT22;1909;53.046;8.276;2022-11-11T03:09:08;10.30;99.90
3788;DHT22;1909;53.046;8.276;2022-11-11T03:11:34;10.30;99.90
3788;DHT22;1909;53.046;8.276;2022-11-11T03:14:03;10.30;99.90
3788;DHT22;1909;53.046;8.276;2022-11-11T03:16:31;10.30;99.90
3788;DHT22;1909;53.046;8.276;2022-11-11T03:19:16;10.30;99.90
3788;DHT22;1909;53.046;8.276;2022-11-11T03:21:42;10.20;99.90
3788;DHT22;1909;53.046;8.276;2022-11-11T03:24:08;10.20;99.90
3788;DHT22;1909;53.046;8.276;2022-11-11T03:26:35;10.20;99.90
3788;DHT22;1909;53.046;8.276;2022-11-11T03:29:01;10.20;99.90
3788;DHT22;1909;53.046;8.276;2022-11-11T03:31:28;10.20;99.90
3788;DHT22;1909;53.046;8.276;2022-11-11T03:33:56;10.30;99.90
3788;DHT22;1909;53.046;8.276;2022-11-11T03:36:42;10.20;99.90
3788;DHT22;1909;53.046;8.276;2022-11-11T03:39:26;10.20;99.90
3788;DHT22;1909;53.046;8.276;2022-11-11T03:41:53;10.20;99.90
3788;DHT22;1909;53.046;8.276;2022-11-11T03:44:20;10.20;99.90
3788;DHT22;1909;53.046;8.276;2022-11-11T03:46:46;10.20;99.90
3788;DHT22;1909;53.046;8.276;2022-11-11T03:49:14;10.10;99.90
3788;DHT22;1909;53.046;8.276;2022-11-11T03:51:41;10.10;99.90
3788;DHT22;1909;53.046;8.276;2022-11-11T03:54:08;10.10;99.90
3788;DHT22;1909;53.046;8.276;2022-11-11T03:56:34;10.10;99.90
3788;DHT22;1909;53.046;8.276;2022-11-11T03:59:01;10.10;99.90
3788;DHT22;1909;53.046;8.276;2022-11-11T04:01:28;10.10;99.90
3788;DHT22;1909;53.046;8.276;2022-11-11T04:04:12;10.10;99.90
3788;DHT22;1909;53.046;8.276;2022-11-11T04:06:57;10.10;99.90
3788;DHT22;1909;53.046;8.276;2022-11-11T04:09:41;10.10;99.90
3788;DHT22;1909;53.046;8.276;2022-11-11T04:12:26;10.10;99.90
3788;DHT22;1909;53.046;8.276;2022-11-11T04:14:54;10.10;99.90
3788;DHT22;1909;53.046;8.276;2022-11-11T04:17:38;10.00;99.90
3788;DHT22;1909;53.046;8.276;2022-11-11T04:20:06;10.10;99.90
3788;DHT22;1909;53.046;8.276;2022-11-11T04:22:52;10.10;99.90
3788;DHT22;1909;53.046;8.276;2022-11-11T04:25:19;10.10;99.90
3788;DHT22;1909;53.046;8.276;2022-11-11T04:28:03;10.10;99.90
3788;DHT22;1909;53.046;8.276;2022-11-11T04:30:47;10.10;99.90
3788;DHT22;1909;53.046;8.276;2022-11-11T04:33:14;10.10;99.90
3788;DHT22;1909;53.046;8.276;2022-11-11T04:35:41;10.00;99.90
3788;DHT22;1909;53.046;8.276;2022-11-11T04:38:09;10.10;99.90
3788;DHT22;1909;53.046;8.276;2022-11-11T04:40:53;10.00;99.90
3788;DHT22;1909;53.046;8.276;2022-11-11T04:43:29;10.10;99.90
3788;DHT22;1909;53.046;8.276;2022-11-11T04:45:57;10.00;99.90
3788;DHT22;1909;53.046;8.276;2022-11-11T04:48:23;10.10;99.90
3788;DHT22;1909;53.046;8.276;2022-11-11T04:50:50;10.10;99.90
3788;DHT22;1909;53.046;8.276;2022-11-11T04:53:18;10.10;99.90
3788;DHT22;1909;53.046;8.276;2022-11-11T04:55:47;10.00;99.90
3788;DHT22;1909;53.046;8.276;2022-11-11T04:58:33;10.00;99.90
3788;DHT22;1909;53.046;8.276;2022-11-11T05:01:00;10.10;99.90
3788;DHT22;1909;53.046;8.276;2022-11-11T05:03:27;10.10;99.90
3788;DHT22;1909;53.046;8.276;2022-11-11T05:05:54;10.10;99.90
3788;DHT22;1909;53.046;8.276;2022-11-11T05:08:41;10.10;99.90
3788;DHT22;1909;53.046;8.276;2022-11-11T05:11:26;10.10;99.90
3788;DHT22;1909;53.046;8.276;2022-11-11T05:13:54;10.10;99.90
3788;DHT22;1909;53.046;8.276;2022-11-11T05:16:41;10.00;99.90
3788;DHT22;1909;53.046;8.276;2022-11-11T05:19:26;10.90;99.90
3788;DHT22;1909;53.046;8.276;2022-11-11T05:22:15;10.10;99.90
3788;DHT22;1909;53.046;8.276;2022-11-11T05:24:44;10.00;99.90
3788;DHT22;1909;53.046;8.276;2022-11-11T05:27:28;10.10;99.90
3788;DHT22;1909;53.046;8.276;2022-11-11T05:29:55;10.00;99.90
3788;DHT22;1909;53.046;8.276;2022-11-11T05:32:23;10.10;99.90
3788;DHT22;1909;53.046;8.276;2022-11-11T05:34:49;10.10;99.90
3788;DHT22;1909;53.046;8.276;2022-11-11T05:37:16;10.20;99.90
3788;DHT22;1909;53.046;8.276;2022-11-11T05:39:45;10.00;99.90
3788;DHT22;1909;53.046;8.276;2022-11-11T05:42:12;10.10;99.90
3788;DHT22;1909;53.046;8.276;2022-11-11T05:44:39;10.10;99.90
3788;DHT22;1909;53.046;8.276;2022-11-11T05:47:06;10.10;99.90
3788;DHT22;1909;53.046;8.276;2022-11-11T05:49:33;10.10;99.90
3788;DHT22;1909;53.046;8.276;2022-11-11T05:52:00;10.00;99.90
3788;DHT22;1909;53.046;8.276;2022-11-11T05:54:27;10.10;99.90
3788;DHT22;1909;53.046;8.276;2022-11-11T05:56:55;10.10;99.90
3788;DHT22;1909;53.046;8.276;2022-11-11T05:59:21;10.10;99.90
3788;DHT22;1909;53.046;8.276;2022-11-11T06:01:48;10.10;99.90
3788;DHT22;1909;53.046;8.276;2022-11-11T06:04:15;10.10;99.90
3788;DHT22;1909;53.046;8.276;2022-11-11T06:06:41;10.10;99.90
3788;DHT22;1909;53.046;8.276;2022-11-11T06:09:08;10.10;99.90
3788;DHT22;1909;53.046;8.276;2022-11-11T06:11:35;10.00;99.90
3788;DHT22;1909;53.046;8.276;2022-11-11T06:14:03;10.10;99.90
3788;DHT22;1909;53.046;8.276;2022-11-11T06:16:30;10.10;99.90
3788;DHT22;1909;53.046;8.276;2022-11-11T06:18:57;10.10;99.90
3788;DHT22;1909;53.046;8.276;2022-11-11T06:21:24;10.10;99.90
3788;DHT22;1909;53.046;8.276;2022-11-11T06:23:51;10.10;99.90
3788;DHT22;1909;53.046;8.276;2022-11-11T06:26:18;10.00;99.90
3788;DHT22;1909;53.046;8.276;2022-11-11T06:28:46;10.10;99.90
3788;DHT22;1909;53.046;8.276;2022-11-11T06:31:16;10.10;99.90
3788;DHT22;1909;53.046;8.276;2022-11-11T06:33:44;10.10;99.90
3788;DHT22;1909;53.046;8.276;2022-11-11T06:36:12;10.10;99.90
3788;DHT22;1909;53.046;8.276;2022-11-11T06:38:39;10.10;99.90
3788;DHT22;1909;53.046;8.276;2022-11-11T06:41:06;10.20;99.90
3788;DHT22;1909;53.046;8.276;2022-11-11T06:43:34;10.20;99.90
3788;DHT22;1909;53.046;8.276;2022-11-11T06:46:01;10.10;99.90
3788;DHT22;1909;53.046;8.276;2022-11-11T06:48:29;10.20;99.90
3788;DHT22;1909;53.046;8.276;2022-11-11T06:51:00;10.20;99.90
3788;DHT22;1909;53.046;8.276;2022-11-11T06:53:27;10.10;99.90
3788;DHT22;1909;53.046;8.276;2022-11-11T06:55:54;10.20;99.90
3788;DHT22;1909;53.046;8.276;2022-11-11T06:58:21;10.10;99.90
3788;DHT22;1909;53.046;8.276;2022-11-11T07:00:48;10.10;99.90
3788;DHT22;1909;53.046;8.276;2022-11-11T07:03:17;10.10;99.90
3788;DHT22;1909;53.046;8.276;2022-11-11T07:05:45;10.20;99.90
3788;DHT22;1909;53.046;8.276;2022-11-11T07:08:14;10.30;99.90
3788;DHT22;1909;53.046;8.276;2022-11-11T07:10:43;10.20;99.90
3788;DHT22;1909;53.046;8.276;2022-11-11T07:13:10;10.20;99.90
3788;DHT22;1909;53.046;8.276;2022-11-11T07:15:37;10.30;99.90
3788;DHT22;1909;53.046;8.276;2022-11-11T07:18:04;10.30;99.90
3788;DHT22;1909;53.046;8.276;2022-11-11T07:20:31;10.30;99.90
3788;DHT22;1909;53.046;8.276;2022-11-11T07:22:59;10.20;99.90
3788;DHT22;1909;53.046;8.276;2022-11-11T07:25:26;10.30;99.90
3788;DHT22;1909;53.046;8.276;2022-11-11T07:27:53;10.30;99.90
3788;DHT22;1909;53.046;8.276;2022-11-11T07:30:19;10.20;99.90
3788;DHT22;1909;53.046;8.276;2022-11-11T07:32:47;10.20;99.90
3788;DHT22;1909;53.046;8.276;2022-11-11T07:35:15;10.20;99.90
3788;DHT22;1909;53.046;8.276;2022-11-11T07:37:42;10.20;99.90
3788;DHT22;1909;53.046;8.276;2022-11-11T07:40:13;10.30;99.90
3788;DHT22;1909;53.046;8.276;2022-11-11T07:42:40;10.30;99.90
3788;DHT22;1909;53.046;8.276;2022-11-11T07:45:08;10.20;99.90
3788;DHT22;1909;53.046;8.276;2022-11-11T07:47:36;10.30;99.90
3788;DHT22;1909;53.046;8.276;2022-11-11T07:50:04;10.30;99.90
3788;DHT22;1909;53.046;8.276;2022-11-11T07:52:31;10.30;99.90
3788;DHT22;1909;53.046;8.276;2022-11-11T07:54:58;10.20;99.90
3788;DHT22;1909;53.046;8.276;2022-11-11T07:57:26;10.30;99.90
3788;DHT22;1909;53.046;8.276;2022-11-11T07:59:53;10.30;99.90
3788;DHT22;1909;53.046;8.276;2022-11-11T08:02:20;10.30;99.90
3788;DHT22;1909;53.046;8.276;2022-11-11T08:04:47;10.30;99.90
3788;DHT22;1909;53.046;8.276;2022-11-11T08:07:13;10.30;99.90
3788;DHT22;1909;53.046;8.276;2022-11-11T08:09:40;10.30;99.90
3788;DHT22;1909;53.046;8.276;2022-11-11T08:12:08;10.20;99.90
3788;DHT22;1909;53.046;8.276;2022-11-11T08:14:53;10.20;99.90
3788;DHT22;1909;53.046;8.276;2022-11-11T08:17:20;10.30;99.90
3788;DHT22;1909;53.046;8.276;2022-11-11T08:19:47;10.30;99.90
3788;DHT22;1909;53.046;8.276;2022-11-11T08:22:14;10.30;99.90
3788;DHT22;1909;53.046;8.276;2022-11-11T08:24:40;10.20;99.90
3788;DHT22;1909;53.046;8.276;2022-11-11T08:27:07;10.30;99.90
3788;DHT22;1909;53.046;8.276;2022-11-11T08:29:34;10.20;99.90
3788;DHT22;1909;53.046;8.276;2022-11-11T08:32:02;10.20;99.90
3788;DHT22;1909;53.046;8.276;2022-11-11T08:34:29;10.20;99.90
3788;DHT22;1909;53.046;8.276;2022-11-11T08:36:56;10.20;99.90
3788;DHT22;1909;53.046;8.276;2022-11-11T08:39:23;10.20;99.90
3788;DHT22;1909;53.046;8.276;2022-11-11T08:41:49;10.20;99.90
3788;DHT22;1909;53.046;8.276;2022-11-11T08:44:16;10.20;99.90
3788;DHT22;1909;53.046;8.276;2022-11-11T08:46:43;10.20;99.90
3788;DHT22;1909;53.046;8.276;2022-11-11T08:49:11;10.30;99.90
3788;DHT22;1909;53.046;8.276;2022-11-11T08:51:37;10.20;99.90
3788;DHT22;1909;53.046;8.276;2022-11-11T08:54:04;10.20;99.90
3788;DHT22;1909;53.046;8.276;2022-11-11T08:56:31;10.20;99.90
3788;DHT22;1909;53.046;8.276;2022-11-11T08:58:57;10.20;99.90
3788;DHT22;1909;53.046;8.276;2022-11-11T09:01:24;10.30;99.90
3788;DHT22;1909;53.046;8.276;2022-11-11T09:03:51;10.20;99.90
3788;DHT22;1909;53.046;8.276;2022-11-11T09:06:19;10.20;99.90
3788;DHT22;1909;53.046;8.276;2022-11-11T09:08:46;10.30;99.90
3788;DHT22;1909;53.046;8.276;2022-11-11T09:11:12;10.30;99.90
3788;DHT22;1909;53.046;8.276;2022-11-11T09:13:39;10.30;99.90
3788;DHT22;1909;53.046;8.276;2022-11-11T09:16:07;10.30;99.90
3788;DHT22;1909;53.046;8.276;2022-11-11T09:18:34;10.20;99.90
3788;DHT22;1909;53.046;8.276;2022-11-11T09:21:00;10.20;99.90
3788;DHT22;1909;53.046;8.276;2022-11-11T09:23:28;10.30;99.90
3788;DHT22;1909;53.046;8.276;2022-11-11T09:25:56;10.20;99.90
3788;DHT22;1909;53.046;8.276;2022-11-11T09:28:23;10.20;99.90
3788;DHT22;1909;53.046;8.276;2022-11-11T09:30:50;10.20;99.90
3788;DHT22;1909;53.046;8.276;2022-11-11T09:33:16;10.30;99.90
3788;DHT22;1909;53.046;8.276;2022-11-11T09:35:44;10.20;99.90
3788;DHT22;1909;53.046;8.276;2022-11-11T09:38:11;10.30;99.90
3788;DHT22;1909;53.046;8.276;2022-11-11T09:40:48;10.30;99.90
3788;DHT22;1909;53.046;8.276;2022-11-11T09:43:27;10.20;99.90
3788;DHT22;1909;53.046;8.276;2022-11-11T09:46:07;10.30;99.90
3788;DHT22;1909;53.046;8.276;2022-11-11T09:48:57;10.30;99.90
3788;DHT22;1909;53.046;8.276;2022-11-11T09:51:33;10.30;99.90
3788;DHT22;1909;53.046;8.276;2022-11-11T09:54:05;10.30;99.90
3788;DHT22;1909;53.046;8.276;2022-11-11T09:56:36;10.30;99.90
3788;DHT22;1909;53.046;8.276;2022-11-11T09:59:07;10.30;99.90
3788;DHT22;1909;53.046;8.276;2022-11-11T10:01:39;10.30;99.90
3788;DHT22;1909;53.046;8.276;2022-11-11T10:04:23;10.30;99.90
3788;DHT22;1909;53.046;8.276;2022-11-11T10:06:56;10.30;99.90
3788;DHT22;1909;53.046;8.276;2022-11-11T10:09:30;10.60;99.90
3788;DHT22;1909;53.046;8.276;2022-11-11T10:12:06;10.50;99.90
3788;DHT22;1909;53.046;8.276;2022-11-11T10:14:37;10.50;99.90
3788;DHT22;1909;53.046;8.276;2022-11-11T10:17:12;10.40;99.90
3788;DHT22;1909;53.046;8.276;2022-11-11T10:19:48;10.40;99.90
3788;DHT22;1909;53.046;8.276;2022-11-11T10:22:24;10.50;99.90
3788;DHT22;1909;53.046;8.276;2022-11-11T10:25:20;10.60;99.90
3788;DHT22;1909;53.046;8.276;2022-11-11T10:27:51;10.40;99.90
3788;DHT22;1909;53.046;8.276;2022-11-11T10:30:21;10.50;99.90
3788;DHT22;1909;53.046;8.276;2022-11-11T10:32:52;10.50;99.90
3788;DHT22;1909;53.046;8.276;2022-11-11T10:35:22;10.50;99.90
3788;DHT22;1909;53.046;8.276;2022-11-11T10:37:59;10.60;99.90
3788;DHT22;1909;53.046;8.276;2022-11-11T10:40:36;10.60;99.90
3788;DHT22;1909;53.046;8.276;2022-11-11T10:43:14;10.50;99.90
3788;DHT22;1909;53.046;8.276;2022-11-11T10:45:48;10.50;99.90
3788;DHT22;1909;53.046;8.276;2022-11-11T10:48:19;10.70;99.90
3788;DHT22;1909;53.046;8.276;2022-11-11T10:50:50;10.80;99.90
3788;DHT22;1909;53.046;8.276;2022-11-11T10:53:24;10.60;99.90
3788;DHT22;1909;53.046;8.276;2022-11-11T10:55:59;10.60;99.90
3788;DHT22;1909;53.046;8.276;2022-11-11T10:58:33;10.70;99.90
3788;DHT22;1909;53.046;8.276;2022-11-11T11:01:06;10.80;99.90
3788;DHT22;1909;53.046;8.276;2022-11-11T11:03:36;10.80;99.90
3788;DHT22;1909;53.046;8.276;2022-11-11T11:06:09;10.90;99.90
3788;DHT22;1909;53.046;8.276;2022-11-11T11:08:40;10.80;99.90
3788;DHT22;1909;53.046;8.276;2022-11-11T11:11:14;10.90;99.90
3788;DHT22;1909;53.046;8.276;2022-11-11T11:13:46;11.00;99.90
3788;DHT22;1909;53.046;8.276;2022-11-11T11:16:18;11.10;99.90
3788;DHT22;1909;53.046;8.276;2022-11-11T11:19:13;11.10;99.90
3788;DHT22;1909;53.046;8.276;2022-11-11T11:21:48;11.20;99.90
3788;DHT22;1909;53.046;8.276;2022-11-11T11:24:20;11.20;99.90
3788;DHT22;1909;53.046;8.276;2022-11-11T11:26:49;10.90;99.90
3788;DHT22;1909;53.046;8.276;2022-11-11T11:29:29;11.10;99.90
3788;DHT22;1909;53.046;8.276;2022-11-11T11:32:10;11.40;99.90
3788;DHT22;1909;53.046;8.276;2022-11-11T11:34:48;11.20;99.90
3788;DHT22;1909;53.046;8.276;2022-11-11T11:37:16;11.10;99.90
3788;DHT22;1909;53.046;8.276;2022-11-11T11:39:43;11.40;99.90
3788;DHT22;1909;53.046;8.276;2022-11-11T11:42:26;11.40;99.90
3788;DHT22;1909;53.046;8.276;2022-11-11T11:44:55;11.50;99.90
3788;DHT22;1909;53.046;8.276;2022-11-11T11:47:33;11.30;99.90
3788;DHT22;1909;53.046;8.276;2022-11-11T11:50:20;11.40;99.90
3788;DHT22;1909;53.046;8.276;2022-11-11T11:53:00;11.60;99.90
3788;DHT22;1909;53.046;8.276;2022-11-11T11:55:32;11.60;99.90
3788;DHT22;1909;53.046;8.276;2022-11-11T11:58:12;11.70;99.90
3788;DHT22;1909;53.046;8.276;2022-11-11T12:00:50;11.70;99.90
3788;DHT22;1909;53.046;8.276;2022-11-11T12:03:52;11.70;99.90
3788;DHT22;1909;53.046;8.276;2022-11-11T12:06:26;11.80;99.90
3788;DHT22;1909;53.046;8.276;2022-11-11T12:09:03;11.80;99.90
3788;DHT22;1909;53.046;8.276;2022-11-11T12:11:35;11.90;99.90
3788;DHT22;1909;53.046;8.276;2022-11-11T12:14:23;11.70;99.90
3788;DHT22;1909;53.046;8.276;2022-11-11T12:16:58;12.10;99.90
3788;DHT22;1909;53.046;8.276;2022-11-11T12:19:38;11.90;99.90
3788;DHT22;1909;53.046;8.276;2022-11-11T12:22:14;11.70;99.90
3788;DHT22;1909;53.046;8.276;2022-11-11T12:24:52;11.80;99.90
3788;DHT22;1909;53.046;8.276;2022-11-11T12:27:26;12.10;99.90
3788;DHT22;1909;53.046;8.276;2022-11-11T12:30:02;12.00;99.90
3788;DHT22;1909;53.046;8.276;2022-11-11T12:32:51;11.90;99.90
3788;DHT22;1909;53.046;8.276;2022-11-11T12:35:25;12.20;99.90
3788;DHT22;1909;53.046;8.276;2022-11-11T12:38:08;12.00;99.90
3788;DHT22;1909;53.046;8.276;2022-11-11T12:40:48;12.00;99.90
3788;DHT22;1909;53.046;8.276;2022-11-11T12:43:25;11.90;99.90
3788;DHT22;1909;53.046;8.276;2022-11-11T12:46:03;12.40;99.90
3788;DHT22;1909;53.046;8.276;2022-11-11T12:48:41;12.70;99.90
3788;DHT22;1909;53.046;8.276;2022-11-11T12:51:16;12.70;99.90
3788;DHT22;1909;53.046;8.276;2022-11-11T12:53:51;12.90;99.90
3788;DHT22;1909;53.046;8.276;2022-11-11T12:56:24;12.90;99.90
3788;DHT22;1909;53.046;8.276;2022-11-11T12:58:58;12.30;99.90
3788;DHT22;1909;53.046;8.276;2022-11-11T13:01:36;12.40;99.90
3788;DHT22;1909;53.046;8.276;2022-11-11T13:04:25;12.60;99.90
3788;DHT22;1909;53.046;8.276;2022-11-11T13:07:09;12.60;99.90
3788;DHT22;1909;53.046;8.276;2022-11-11T13:10:01;12.40;99.90
3788;DHT22;1909;53.046;8.276;2022-11-11T13:12:33;12.20;99.90
3788;DHT22;1909;53.046;8.276;2022-11-11T13:15:10;12.20;99.90
3788;DHT22;1909;53.046;8.276;2022-11-11T13:17:37;12.70;99.90
3788;DHT22;1909;53.046;8.276;2022-11-11T13:20:15;12.70;99.90
3788;DHT22;1909;53.046;8.276;2022-11-11T13:22:42;12.60;99.90
3788;DHT22;1909;53.046;8.276;2022-11-11T13:25:14;12.70;99.90
3788;DHT22;1909;53.046;8.276;2022-11-11T13:27:46;12.60;99.90
3788;DHT22;1909;53.046;8.276;2022-11-11T13:30:47;12.70;99.90
3788;DHT22;1909;53.046;8.276;2022-11-11T13:33:18;12.80;99.90
3788;DHT22;1909;53.046;8.276;2022-11-11T13:35:50;12.30;99.90
3788;DHT22;1909;53.046;8.276;2022-11-11T13:38:27;12.60;99.90
3788;DHT22;1909;53.046;8.276;2022-11-11T13:40:57;12.60;99.90
3788;DHT22;1909;53.046;8.276;2022-11-11T13:43:28;12.90;99.90
3788;DHT22;1909;53.046;8.276;2022-11-11T13:45:57;13.10;99.90
3788;DHT22;1909;53.046;8.276;2022-11-11T13:48:27;13.00;99.90
3788;DHT22;1909;53.046;8.276;2022-11-11T13:53:48;12.80;99.90
3788;DHT22;1909;53.046;8.276;2022-11-11T13:56:23;12.90;99.90
3788;DHT22;1909;53.046;8.276;2022-11-11T13:58:52;12.80;99.90
3788;DHT22;1909;53.046;8.276;2022-11-11T14:01:20;12.70;99.90
3788;DHT22;1909;53.046;8.276;2022-11-11T14:03:59;13.00;99.90
3788;DHT22;1909;53.046;8.276;2022-11-11T14:10:00;13.00;99.90
3788;DHT22;1909;53.046;8.276;2022-11-11T14:12:41;13.00;99.90
3788;DHT22;1909;53.046;8.276;2022-11-11T14:15:34;13.10;99.90
3788;DHT22;1909;53.046;8.276;2022-11-11T14:18:01;13.00;99.90
3788;DHT22;1909;53.046;8.276;2022-11-11T14:20:36;13.20;99.90
3788;DHT22;1909;53.046;8.276;2022-11-11T14:23:28;13.10;99.90
3788;DHT22;1909;53.046;8.276;2022-11-11T14:26:22;12.90;99.90
3788;DHT22;1909;53.046;8.276;2022-11-11T14:28:52;12.80;99.90
3788;DHT22;1909;53.046;8.276;2022-11-11T14:31:42;12.60;99.90
3788;DHT22;1909;53.046;8.276;2022-11-11T14:34:21;12.70;99.90
3788;DHT22;1909;53.046;8.276;2022-11-11T14:36:54;12.80;99.90
3788;DHT22;1909;53.046;8.276;2022-11-11T14:39:37;12.60;99.90
3788;DHT22;1909;53.046;8.276;2022-11-11T14:42:44;12.60;99.90
3788;DHT22;1909;53.046;8.276;2022-11-11T14:48:50;12.60;99.90
3788;DHT22;1909;53.046;8.276;2022-11-11T14:51:39;12.70;99.90
3788;DHT22;1909;53.046;8.276;2022-11-11T14:54:25;12.70;99.90
3788;DHT22;1909;53.046;8.276;2022-11-11T14:56:58;12.60;99.90
3788;DHT22;1909;53.046;8.276;2022-11-11T14:59:28;12.60;99.90
3788;DHT22;1909;53.046;8.276;2022-11-11T15:01:57;12.60;99.90
3788;DHT22;1909;53.046;8.276;2022-11-11T15:04:25;12.80;99.90
3788;DHT22;1909;53.046;8.276;2022-11-11T15:06:56;12.70;99.90
3788;DHT22;1909;53.046;8.276;2022-11-11T15:09:51;12.70;99.90
3788;DHT22;1909;53.046;8.276;2022-11-11T15:12:31;12.70;99.90
3788;DHT22;1909;53.046;8.276;2022-11-11T15:15:09;12.70;99.90
3788;DHT22;1909;53.046;8.276;2022-11-11T15:17:44;12.60;99.90
3788;DHT22;1909;53.046;8.276;2022-11-11T15:20:41;12.50;99.90
3788;DHT22;1909;53.046;8.276;2022-11-11T15:23:16;12.70;99.90
3788;DHT22;1909;53.046;8.276;2022-11-11T15:25:51;12.70;99.90
3788;DHT22;1909;53.046;8.276;2022-11-11T15:28:48;12.60;99.90
3788;DHT22;1909;53.046;8.276;2022-11-11T15:31:24;12.70;99.90
3788;DHT22;1909;53.046;8.276;2022-11-11T15:33:56;12.70;99.90
3788;DHT22;1909;53.046;8.276;2022-11-11T15:36:35;12.70;99.90
3788;DHT22;1909;53.046;8.276;2022-11-11T15:39:12;12.60;99.90
3788;DHT22;1909;53.046;8.276;2022-11-11T15:41:42;12.70;99.90
3788;DHT22;1909;53.046;8.276;2022-11-11T15:44:14;12.70;99.90
3788;DHT22;1909;53.046;8.276;2022-11-11T15:46:44;12.70;99.90
3788;DHT22;1909;53.046;8.276;2022-11-11T15:49:13;12.70;99.90
3788;DHT22;1909;53.046;8.276;2022-11-11T15:51:40;12.60;99.90
3788;DHT22;1909;53.046;8.276;2022-11-11T15:54:18;12.50;99.90
3788;DHT22;1909;53.046;8.276;2022-11-11T15:56:46;12.40;99.90
3788;DHT22;1909;53.046;8.276;2022-11-11T15:59:20;12.50;99.90
3788;DHT22;1909;53.046;8.276;2022-11-11T16:02:13;12.50;99.90
3788;DHT22;1909;53.046;8.276;2022-11-11T16:04:46;12.50;99.90
3788;DHT22;1909;53.046;8.276;2022-11-11T16:07:19;12.50;99.90
3788;DHT22;1909;53.046;8.276;2022-11-11T16:09:46;12.50;99.90
3788;DHT22;1909;53.046;8.276;2022-11-11T16:12:18;12.40;99.90
3788;DHT22;1909;53.046;8.276;2022-11-11T16:14:46;12.40;99.90
3788;DHT22;1909;53.046;8.276;2022-11-11T16:17:15;12.40;99.90
3788;DHT22;1909;53.046;8.276;2022-11-11T16:19:43;12.30;99.90
3788;DHT22;1909;53.046;8.276;2022-11-11T16:22:14;12.30;99.90
3788;DHT22;1909;53.046;8.276;2022-11-11T16:24:43;12.30;99.90
3788;DHT22;1909;53.046;8.276;2022-11-11T16:27:15;12.20;99.90
3788;DHT22;1909;53.046;8.276;2022-11-11T16:29:43;12.20;99.90
3788;DHT22;1909;53.046;8.276;2022-11-11T16:32:32;12.20;99.90
3788;DHT22;1909;53.046;8.276;2022-11-11T16:34:59;12.10;99.90
3788;DHT22;1909;53.046;8.276;2022-11-11T16:37:26;12.10;99.90
3788;DHT22;1909;53.046;8.276;2022-11-11T16:39:53;12.10;99.90
3788;DHT22;1909;53.046;8.276;2022-11-11T16:42:21;12.10;99.90
3788;DHT22;1909;53.046;8.276;2022-11-11T16:44:53;12.10;99.90
3788;DHT22;1909;53.046;8.276;2022-11-11T16:47:41;12.00;99.90